sensor_id;sensor_type;location;lat;lon;timestamp;temperature;humidity
21950;DHT22;11139;51.284;7.226;2023-08-20T00:00:58;21.40;99.90
21950;DHT22;11139;51.284;7.226;2023-08-20T00:03:24;21.40;99.90
21950;DHT22;11139;51.284;7.226;2023-08-20T00:05:49;21.40;99.90
21950;DHT22;11139;51.284;7.226;2023-08-20T00:08:15;21.40;99.90
21950;DHT22;11139;51.284;7.226;2023-08-20T00:10:41;21.40;99.90
21950;DHT22;11139;51.284;7.226;2023-08-20T00:13:06;21.40;99.90
21950;DHT22;11139;51.284;7.226;2023-08-20T00:15:32;21.40;99.90
21950;DHT22;11139;51.284;7.226;2023-08-20T00:17:58;21.40;99.90
21950;DHT22;11139;51.284;7.226;2023-08-20T00:20:24;21.40;99.90
21950;DHT22;11139;51.284;7.226;2023-08-20T00:22:50;21.40;99.90
21950;DHT22;11139;51.284;7.226;2023-08-20T00:25:16;21.40;99.90
21950;DHT22;11139;51.284;7.226;2023-08-20T00:27:42;21.40;99.90
21950;DHT22;11139;51.284;7.226;2023-08-20T00:30:08;21.40;99.90
21950;DHT22;11139;51.284;7.226;2023-08-20T00:32:34;21.30;99.90
21950;DHT22;11139;51.284;7.226;2023-08-20T00:34:59;21.30;99.90
21950;DHT22;11139;51.284;7.226;2023-08-20T00:37:25;21.30;99.90
21950;DHT22;11139;51.284;7.226;2023-08-20T00:39:50;21.30;99.90
21950;DHT22;11139;51.284;7.226;2023-08-20T00:42:16;21.30;99.90
21950;DHT22;11139;51.284;7.226;2023-08-20T00:44:42;21.30;99.90
21950;DHT22;11139;51.284;7.226;2023-08-20T00:47:10;21.30;99.90
21950;DHT22;11139;51.284;7.226;2023-08-20T00:49:36;21.30;99.90
21950;DHT22;11139;51.284;7.226;2023-08-20T00:52:01;21.30;99.90
21950;DHT22;11139;51.284;7.226;2023-08-20T00:54:27;21.30;99.90
21950;DHT22;11139;51.284;7.226;2023-08-20T00:56:54;21.30;99.90
21950;DHT22;11139;51.284;7.226;2023-08-20T00:59:20;21.30;99.90
21950;DHT22;11139;51.284;7.226;2023-08-20T01:01:45;21.30;99.90
21950;DHT22;11139;51.284;7.226;2023-08-20T01:04:11;21.30;99.90
21950;DHT22;11139;51.284;7.226;2023-08-20T01:12:05;21.20;99.90
21950;DHT22;11139;51.284;7.226;2023-08-20T01:14:31;21.20;99.90
21950;DHT22;11139;51.284;7.226;2023-08-20T01:16:57;21.20;99.90
21950;DHT22;11139;51.284;7.226;2023-08-20T01:19:22;21.20;99.90
21950;DHT22;11139;51.284;7.226;2023-08-20T01:24:46;21.20;99.90
21950;DHT22;11139;51.284;7.226;2023-08-20T01:29:45;21.20;99.90
21950;DHT22;11139;51.284;7.226;2023-08-20T01:32:10;21.20;99.90
21950;DHT22;11139;51.284;7.226;2023-08-20T01:34:37;21.20;99.90
21950;DHT22;11139;51.284;7.226;2023-08-20T01:37:02;21.20;99.90
21950;DHT22;11139;51.284;7.226;2023-08-20T01:39:28;21.20;99.90
21950;DHT22;11139;51.284;7.226;2023-08-20T01:41:53;21.10;99.90
21950;DHT22;11139;51.284;7.226;2023-08-20T01:44:19;21.10;99.90
21950;DHT22;11139;51.284;7.226;2023-08-20T01:46:44;21.20;99.90
21950;DHT22;11139;51.284;7.226;2023-08-20T01:49:10;21.10;99.90
21950;DHT22;11139;51.284;7.226;2023-08-20T01:51:35;21.10;99.90
21950;DHT22;11139;51.284;7.226;2023-08-20T01:54:01;21.10;99.90
21950;DHT22;11139;51.284;7.226;2023-08-20T01:56:27;21.10;99.90
21950;DHT22;11139;51.284;7.226;2023-08-20T01:58:53;21.10;99.90
21950;DHT22;11139;51.284;7.226;2023-08-20T02:01:18;21.10;99.90
21950;DHT22;11139;51.284;7.226;2023-08-20T02:03:43;21.10;99.90
21950;DHT22;11139;51.284;7.226;2023-08-20T02:06:09;21.10;99.90
21950;DHT22;11139;51.284;7.226;2023-08-20T02:08:34;21.10;99.90
21950;DHT22;11139;51.284;7.226;2023-08-20T02:11:01;21.10;99.90
21950;DHT22;11139;51.284;7.226;2023-08-20T02:13:27;21.10;99.90
21950;DHT22;11139;51.284;7.226;2023-08-20T02:16:02;21.10;99.90
21950;DHT22;11139;51.284;7.226;2023-08-20T02:18:28;21.10;99.90
21950;DHT22;11139;51.284;7.226;2023-08-20T02:20:54;21.10;99.90
21950;DHT22;11139;51.284;7.226;2023-08-20T02:23:19;21.00;99.90
21950;DHT22;11139;51.284;7.226;2023-08-20T02:25:45;21.10;99.90
21950;DHT22;11139;51.284;7.226;2023-08-20T02:28:10;21.10;99.90
21950;DHT22;11139;51.284;7.226;2023-08-20T02:30:40;21.00;99.90
21950;DHT22;11139;51.284;7.226;2023-08-20T02:33:05;21.10;99.90
21950;DHT22;11139;51.284;7.226;2023-08-20T02:35:31;21.00;99.90
21950;DHT22;11139;51.284;7.226;2023-08-20T02:37:56;21.00;99.90
21950;DHT22;11139;51.284;7.226;2023-08-20T02:40:22;21.00;99.90
21950;DHT22;11139;51.284;7.226;2023-08-20T02:42:47;21.00;99.90
21950;DHT22;11139;51.284;7.226;2023-08-20T02:45:13;21.00;99.90
21950;DHT22;11139;51.284;7.226;2023-08-20T02:47:38;21.00;99.90
21950;DHT22;11139;51.284;7.226;2023-08-20T02:50:04;21.00;99.90
21950;DHT22;11139;51.284;7.226;2023-08-20T02:52:30;21.00;99.90
21950;DHT22;11139;51.284;7.226;2023-08-20T02:54:55;21.00;99.90
21950;DHT22;11139;51.284;7.226;2023-08-20T02:57:20;21.00;99.90
21950;DHT22;11139;51.284;7.226;2023-08-20T02:59:46;21.00;99.90
21950;DHT22;11139;51.284;7.226;2023-08-20T03:02:12;21.00;99.90
21950;DHT22;11139;51.284;7.226;2023-08-20T03:04:37;21.00;99.90
21950;DHT22;11139;51.284;7.226;2023-08-20T03:07:03;21.00;99.90
21950;DHT22;11139;51.284;7.226;2023-08-20T03:09:29;21.00;99.90
21950;DHT22;11139;51.284;7.226;2023-08-20T03:11:55;21.00;99.90
21950;DHT22;11139;51.284;7.226;2023-08-20T03:14:20;21.00;99.90
21950;DHT22;11139;51.284;7.226;2023-08-20T03:16:46;21.00;99.90
21950;DHT22;11139;51.284;7.226;2023-08-20T03:19:14;21.00;99.90
21950;DHT22;11139;51.284;7.226;2023-08-20T03:21:39;21.00;99.90
21950;DHT22;11139;51.284;7.226;2023-08-20T03:24:05;21.00;99.90
21950;DHT22;11139;51.284;7.226;2023-08-20T03:26:31;21.00;99.90
21950;DHT22;11139;51.284;7.226;2023-08-20T03:28:56;20.90;99.90
21950;DHT22;11139;51.284;7.226;2023-08-20T03:31:22;20.90;99.90
21950;DHT22;11139;51.284;7.226;2023-08-20T03:33:48;20.90;99.90
21950;DHT22;11139;51.284;7.226;2023-08-20T03:36:13;20.90;99.90
21950;DHT22;11139;51.284;7.226;2023-08-20T03:38:39;20.90;99.90
21950;DHT22;11139;51.284;7.226;2023-08-20T03:41:04;20.90;99.90
21950;DHT22;11139;51.284;7.226;2023-08-20T03:43:30;20.90;99.90
21950;DHT22;11139;51.284;7.226;2023-08-20T03:45:55;20.90;99.90
21950;DHT22;11139;51.284;7.226;2023-08-20T03:48:21;20.90;99.90
21950;DHT22;11139;51.284;7.226;2023-08-20T03:50:47;20.90;99.90
21950;DHT22;11139;51.284;7.226;2023-08-20T03:53:12;20.90;99.90
21950;DHT22;11139;51.284;7.226;2023-08-20T03:55:38;20.90;99.90
21950;DHT22;11139;51.284;7.226;2023-08-20T03:58:03;20.90;99.90
21950;DHT22;11139;51.284;7.226;2023-08-20T04:00:29;20.90;99.90
21950;DHT22;11139;51.284;7.226;2023-08-20T04:02:54;20.90;99.90
21950;DHT22;11139;51.284;7.226;2023-08-20T04:05:19;20.80;99.90
21950;DHT22;11139;51.284;7.226;2023-08-20T04:07:45;20.90;99.90
21950;DHT22;11139;51.284;7.226;2023-08-20T04:10:11;20.90;99.90
21950;DHT22;11139;51.284;7.226;2023-08-20T04:12:36;20.90;99.90
21950;DHT22;11139;51.284;7.226;2023-08-20T04:15:02;20.90;99.90
21950;DHT22;11139;51.284;7.226;2023-08-20T04:17:28;20.90;99.90
21950;DHT22;11139;51.284;7.226;2023-08-20T04:19:53;20.90;99.90
21950;DHT22;11139;51.284;7.226;2023-08-20T04:22:19;20.90;99.90
21950;DHT22;11139;51.284;7.226;2023-08-20T04:24:44;20.90;99.90
21950;DHT22;11139;51.284;7.226;2023-08-20T04:27:10;20.90;99.90
21950;DHT22;11139;51.284;7.226;2023-08-20T04:29:35;20.90;99.90
21950;DHT22;11139;51.284;7.226;2023-08-20T04:32:00;20.80;99.90
21950;DHT22;11139;51.284;7.226;2023-08-20T04:34:26;20.80;99.90
21950;DHT22;11139;51.284;7.226;2023-08-20T04:36:51;20.80;99.90
21950;DHT22;11139;51.284;7.226;2023-08-20T04:39:17;20.80;99.90
21950;DHT22;11139;51.284;7.226;2023-08-20T04:41:43;20.80;99.90
21950;DHT22;11139;51.284;7.226;2023-08-20T04:44:08;20.80;99.90
21950;DHT22;11139;51.284;7.226;2023-08-20T04:46:34;20.80;99.90
21950;DHT22;11139;51.284;7.226;2023-08-20T04:49:00;20.80;99.90
21950;DHT22;11139;51.284;7.226;2023-08-20T04:51:25;20.80;99.90
21950;DHT22;11139;51.284;7.226;2023-08-20T04:53:51;20.80;99.90
21950;DHT22;11139;51.284;7.226;2023-08-20T04:56:16;20.80;99.90
21950;DHT22;11139;51.284;7.226;2023-08-20T04:58:42;20.80;99.90
21950;DHT22;11139;51.284;7.226;2023-08-20T05:01:07;20.80;99.90
21950;DHT22;11139;51.284;7.226;2023-08-20T05:03:34;20.70;99.90
21950;DHT22;11139;51.284;7.226;2023-08-20T05:05:59;20.70;99.90
21950;DHT22;11139;51.284;7.226;2023-08-20T05:08:25;20.70;99.90
21950;DHT22;11139;51.284;7.226;2023-08-20T05:10:50;20.70;99.90
21950;DHT22;11139;51.284;7.226;2023-08-20T05:13:17;20.70;99.90
21950;DHT22;11139;51.284;7.226;2023-08-20T05:15:42;20.70;99.90
21950;DHT22;11139;51.284;7.226;2023-08-20T05:18:07;20.70;99.90
21950;DHT22;11139;51.284;7.226;2023-08-20T05:20:33;20.70;99.90
21950;DHT22;11139;51.284;7.226;2023-08-20T05:22:59;20.70;99.90
21950;DHT22;11139;51.284;7.226;2023-08-20T05:25:24;20.70;99.90
21950;DHT22;11139;51.284;7.226;2023-08-20T05:27:50;20.70;99.90
21950;DHT22;11139;51.284;7.226;2023-08-20T05:30:15;20.70;99.90
21950;DHT22;11139;51.284;7.226;2023-08-20T05:32:41;20.70;99.90
21950;DHT22;11139;51.284;7.226;2023-08-20T05:35:06;20.70;99.90
21950;DHT22;11139;51.284;7.226;2023-08-20T05:37:32;20.70;99.90
21950;DHT22;11139;51.284;7.226;2023-08-20T05:39:57;20.70;99.90
21950;DHT22;11139;51.284;7.226;2023-08-20T05:42:23;20.70;99.90
21950;DHT22;11139;51.284;7.226;2023-08-20T05:44:48;20.70;99.90
21950;DHT22;11139;51.284;7.226;2023-08-20T05:47:14;20.70;99.90
21950;DHT22;11139;51.284;7.226;2023-08-20T05:49:39;20.70;99.90
21950;DHT22;11139;51.284;7.226;2023-08-20T05:52:05;20.70;99.90
21950;DHT22;11139;51.284;7.226;2023-08-20T05:54:30;20.70;99.90
21950;DHT22;11139;51.284;7.226;2023-08-20T05:56:57;20.70;99.90
21950;DHT22;11139;51.284;7.226;2023-08-20T05:59:22;20.70;99.90
21950;DHT22;11139;51.284;7.226;2023-08-20T06:01:48;20.70;99.90
21950;DHT22;11139;51.284;7.226;2023-08-20T06:04:13;20.70;99.90
21950;DHT22;11139;51.284;7.226;2023-08-20T06:06:39;20.70;99.90
21950;DHT22;11139;51.284;7.226;2023-08-20T06:09:05;20.70;99.90
21950;DHT22;11139;51.284;7.226;2023-08-20T06:11:31;20.70;99.90
21950;DHT22;11139;51.284;7.226;2023-08-20T06:13:56;20.70;99.90
21950;DHT22;11139;51.284;7.226;2023-08-20T06:16:22;20.70;99.90
21950;DHT22;11139;51.284;7.226;2023-08-20T06:18:47;20.70;99.90
21950;DHT22;11139;51.284;7.226;2023-08-20T06:21:13;20.70;99.90
21950;DHT22;11139;51.284;7.226;2023-08-20T06:23:38;20.70;99.90
21950;DHT22;11139;51.284;7.226;2023-08-20T06:26:04;20.70;99.90
21950;DHT22;11139;51.284;7.226;2023-08-20T06:28:29;20.70;99.90
21950;DHT22;11139;51.284;7.226;2023-08-20T06:30:55;20.70;99.90
21950;DHT22;11139;51.284;7.226;2023-08-20T06:33:21;20.70;99.90
21950;DHT22;11139;51.284;7.226;2023-08-20T06:35:47;20.70;99.90
21950;DHT22;11139;51.284;7.226;2023-08-20T06:38:12;20.70;99.90
21950;DHT22;11139;51.284;7.226;2023-08-20T06:40:37;20.70;99.90
21950;DHT22;11139;51.284;7.226;2023-08-20T06:43:03;20.70;99.90
21950;DHT22;11139;51.284;7.226;2023-08-20T06:45:29;20.70;99.90
21950;DHT22;11139;51.284;7.226;2023-08-20T06:47:54;20.70;99.90
21950;DHT22;11139;51.284;7.226;2023-08-20T06:50:20;20.70;99.90
21950;DHT22;11139;51.284;7.226;2023-08-20T06:52:45;20.70;99.90
21950;DHT22;11139;51.284;7.226;2023-08-20T06:55:11;20.70;99.90
21950;DHT22;11139;51.284;7.226;2023-08-20T06:57:36;20.70;99.90
21950;DHT22;11139;51.284;7.226;2023-08-20T07:00:02;20.70;99.90
21950;DHT22;11139;51.284;7.226;2023-08-20T07:02:30;20.70;99.90
21950;DHT22;11139;51.284;7.226;2023-08-20T07:04:55;20.80;99.90
21950;DHT22;11139;51.284;7.226;2023-08-20T07:07:21;20.80;99.90
21950;DHT22;11139;51.284;7.226;2023-08-20T07:09:47;20.70;99.90
21950;DHT22;11139;51.284;7.226;2023-08-20T07:12:12;20.80;99.90
21950;DHT22;11139;51.284;7.226;2023-08-20T07:14:38;20.80;99.90
21950;DHT22;11139;51.284;7.226;2023-08-20T07:17:04;20.80;99.90
21950;DHT22;11139;51.284;7.226;2023-08-20T07:19:30;20.80;99.90
21950;DHT22;11139;51.284;7.226;2023-08-20T07:21:56;20.80;99.90
21950;DHT22;11139;51.284;7.226;2023-08-20T07:24:21;20.80;99.90
21950;DHT22;11139;51.284;7.226;2023-08-20T07:26:54;20.80;99.90
21950;DHT22;11139;51.284;7.226;2023-08-20T07:29:25;20.80;99.90
21950;DHT22;11139;51.284;7.226;2023-08-20T07:31:50;20.80;99.90
21950;DHT22;11139;51.284;7.226;2023-08-20T07:34:16;20.80;99.90
21950;DHT22;11139;51.284;7.226;2023-08-20T07:36:41;20.80;99.90
21950;DHT22;11139;51.284;7.226;2023-08-20T07:39:07;20.80;99.90
21950;DHT22;11139;51.284;7.226;2023-08-20T07:41:33;20.90;99.90
21950;DHT22;11139;51.284;7.226;2023-08-20T07:43:59;20.80;99.90
21950;DHT22;11139;51.284;7.226;2023-08-20T07:46:25;20.80;99.90
21950;DHT22;11139;51.284;7.226;2023-08-20T07:48:50;20.90;99.90
21950;DHT22;11139;51.284;7.226;2023-08-20T07:51:16;20.90;99.90
21950;DHT22;11139;51.284;7.226;2023-08-20T07:53:41;20.80;99.90
21950;DHT22;11139;51.284;7.226;2023-08-20T07:56:07;20.80;99.90
21950;DHT22;11139;51.284;7.226;2023-08-20T07:58:34;20.90;99.90
21950;DHT22;11139;51.284;7.226;2023-08-20T08:00:59;20.90;99.90
21950;DHT22;11139;51.284;7.226;2023-08-20T08:03:25;20.90;99.90
21950;DHT22;11139;51.284;7.226;2023-08-20T08:05:52;20.90;99.90
21950;DHT22;11139;51.284;7.226;2023-08-20T08:08:19;20.90;99.90
21950;DHT22;11139;51.284;7.226;2023-08-20T08:10:45;20.90;99.90
21950;DHT22;11139;51.284;7.226;2023-08-20T08:13:11;20.90;99.90
21950;DHT22;11139;51.284;7.226;2023-08-20T08:15:37;20.90;99.90
21950;DHT22;11139;51.284;7.226;2023-08-20T08:18:02;21.00;99.90
21950;DHT22;11139;51.284;7.226;2023-08-20T08:20:28;21.00;99.90
21950;DHT22;11139;51.284;7.226;2023-08-20T08:22:54;21.00;99.90
21950;DHT22;11139;51.284;7.226;2023-08-20T08:25:19;21.00;99.90
21950;DHT22;11139;51.284;7.226;2023-08-20T08:27:45;21.00;99.90
21950;DHT22;11139;51.284;7.226;2023-08-20T08:30:11;21.00;99.90
21950;DHT22;11139;51.284;7.226;2023-08-20T08:32:36;21.00;99.90
21950;DHT22;11139;51.284;7.226;2023-08-20T08:35:02;21.00;99.90
21950;DHT22;11139;51.284;7.226;2023-08-20T08:37:27;21.00;99.90
21950;DHT22;11139;51.284;7.226;2023-08-20T08:39:53;21.00;99.90
21950;DHT22;11139;51.284;7.226;2023-08-20T08:42:18;21.00;99.90
21950;DHT22;11139;51.284;7.226;2023-08-20T08:44:46;21.00;99.90
21950;DHT22;11139;51.284;7.226;2023-08-20T08:47:12;21.00;99.90
21950;DHT22;11139;51.284;7.226;2023-08-20T08:49:37;21.10;99.90
21950;DHT22;11139;51.284;7.226;2023-08-20T08:52:03;21.10;99.90
21950;DHT22;11139;51.284;7.226;2023-08-20T08:54:29;21.10;99.90
21950;DHT22;11139;51.284;7.226;2023-08-20T08:56:55;21.10;99.90
21950;DHT22;11139;51.284;7.226;2023-08-20T08:59:21;21.10;99.90
21950;DHT22;11139;51.284;7.226;2023-08-20T09:01:46;21.10;99.90
21950;DHT22;11139;51.284;7.226;2023-08-20T09:04:12;21.10;99.90
21950;DHT22;11139;51.284;7.226;2023-08-20T09:06:47;21.10;99.90
21950;DHT22;11139;51.284;7.226;2023-08-20T09:09:13;21.10;99.90
21950;DHT22;11139;51.284;7.226;2023-08-20T09:11:39;21.10;99.90
21950;DHT22;11139;51.284;7.226;2023-08-20T09:14:05;21.10;99.90
21950;DHT22;11139;51.284;7.226;2023-08-20T09:16:30;21.20;99.90
21950;DHT22;11139;51.284;7.226;2023-08-20T09:18:57;21.20;99.90
21950;DHT22;11139;51.284;7.226;2023-08-20T09:21:26;21.20;99.90
21950;DHT22;11139;51.284;7.226;2023-08-20T09:23:53;21.20;99.90
21950;DHT22;11139;51.284;7.226;2023-08-20T09:26:19;21.20;99.90
21950;DHT22;11139;51.284;7.226;2023-08-20T09:28:45;21.20;99.90
21950;DHT22;11139;51.284;7.226;2023-08-20T09:31:11;21.20;99.90
21950;DHT22;11139;51.284;7.226;2023-08-20T09:33:43;21.20;99.90
21950;DHT22;11139;51.284;7.226;2023-08-20T09:36:13;21.20;99.90
21950;DHT22;11139;51.284;7.226;2023-08-20T09:38:38;21.20;99.90
21950;DHT22;11139;51.284;7.226;2023-08-20T09:41:04;21.20;99.90
21950;DHT22;11139;51.284;7.226;2023-08-20T09:43:30;21.20;99.90
21950;DHT22;11139;51.284;7.226;2023-08-20T09:45:56;21.20;99.90
21950;DHT22;11139;51.284;7.226;2023-08-20T09:48:23;21.20;99.90
21950;DHT22;11139;51.284;7.226;2023-08-20T09:50:51;21.20;99.90
21950;DHT22;11139;51.284;7.226;2023-08-20T09:53:20;21.20;99.90
21950;DHT22;11139;51.284;7.226;2023-08-20T09:55:47;21.20;99.90
21950;DHT22;11139;51.284;7.226;2023-08-20T09:58:14;21.20;99.90
21950;DHT22;11139;51.284;7.226;2023-08-20T10:00:41;21.20;99.90
21950;DHT22;11139;51.284;7.226;2023-08-20T10:03:07;21.30;99.90
21950;DHT22;11139;51.284;7.226;2023-08-20T10:05:33;21.30;99.90
21950;DHT22;11139;51.284;7.226;2023-08-20T10:07:58;21.30;99.90
21950;DHT22;11139;51.284;7.226;2023-08-20T10:10:24;21.30;99.90
21950;DHT22;11139;51.284;7.226;2023-08-20T10:12:51;21.30;99.90
21950;DHT22;11139;51.284;7.226;2023-08-20T10:15:16;21.30;99.90
21950;DHT22;11139;51.284;7.226;2023-08-20T10:17:43;21.30;99.90
21950;DHT22;11139;51.284;7.226;2023-08-20T10:20:09;21.20;99.90
21950;DHT22;11139;51.284;7.226;2023-08-20T10:22:38;21.30;99.90
21950;DHT22;11139;51.284;7.226;2023-08-20T10:25:21;21.30;99.90
21950;DHT22;11139;51.284;7.226;2023-08-20T10:27:47;21.20;99.90
21950;DHT22;11139;51.284;7.226;2023-08-20T10:30:16;21.30;99.90
21950;DHT22;11139;51.284;7.226;2023-08-20T10:32:49;21.30;99.90
21950;DHT22;11139;51.284;7.226;2023-08-20T10:35:15;21.30;99.90
21950;DHT22;11139;51.284;7.226;2023-08-20T10:38:00;21.30;99.90
21950;DHT22;11139;51.284;7.226;2023-08-20T10:41:11;21.30;99.90
21950;DHT22;11139;51.284;7.226;2023-08-20T10:43:11;21.30;99.90
21950;DHT22;11139;51.284;7.226;2023-08-20T10:46:01;21.30;99.90
21950;DHT22;11139;51.284;7.226;2023-08-20T10:48:27;21.40;99.90
21950;DHT22;11139;51.284;7.226;2023-08-20T10:50:52;21.40;99.90
21950;DHT22;11139;51.284;7.226;2023-08-20T10:53:18;21.40;99.90
21950;DHT22;11139;51.284;7.226;2023-08-20T10:55:50;21.40;99.90
21950;DHT22;11139;51.284;7.226;2023-08-20T10:58:17;21.40;99.90
21950;DHT22;11139;51.284;7.226;2023-08-20T11:00:43;21.40;99.90
21950;DHT22;11139;51.284;7.226;2023-08-20T11:03:08;21.40;99.90
21950;DHT22;11139;51.284;7.226;2023-08-20T11:05:34;21.40;99.90
21950;DHT22;11139;51.284;7.226;2023-08-20T11:07:59;21.40;99.90
21950;DHT22;11139;51.284;7.226;2023-08-20T11:10:26;21.50;99.90
21950;DHT22;11139;51.284;7.226;2023-08-20T11:12:51;21.50;99.90
21950;DHT22;11139;51.284;7.226;2023-08-20T11:15:17;21.50;99.90
21950;DHT22;11139;51.284;7.226;2023-08-20T11:17:45;21.50;99.90
21950;DHT22;11139;51.284;7.226;2023-08-20T11:20:11;21.60;99.90
21950;DHT22;11139;51.284;7.226;2023-08-20T11:22:38;21.60;99.90
21950;DHT22;11139;51.284;7.226;2023-08-20T11:25:04;21.60;99.90
21950;DHT22;11139;51.284;7.226;2023-08-20T11:27:29;21.60;99.90
21950;DHT22;11139;51.284;7.226;2023-08-20T11:29:55;21.60;99.90
21950;DHT22;11139;51.284;7.226;2023-08-20T11:32:25;21.60;99.90
21950;DHT22;11139;51.284;7.226;2023-08-20T11:34:51;21.60;99.90
21950;DHT22;11139;51.284;7.226;2023-08-20T11:37:18;21.60;99.90
21950;DHT22;11139;51.284;7.226;2023-08-20T11:39:44;21.50;99.90
21950;DHT22;11139;51.284;7.226;2023-08-20T11:42:10;21.70;99.90
21950;DHT22;11139;51.284;7.226;2023-08-20T11:44:42;22.20;99.90
21950;DHT22;11139;51.284;7.226;2023-08-20T11:47:18;22.90;99.90
21950;DHT22;11139;51.284;7.226;2023-08-20T11:49:43;23.20;99.90
21950;DHT22;11139;51.284;7.226;2023-08-20T11:52:09;23.10;99.90
21950;DHT22;11139;51.284;7.226;2023-08-20T11:54:35;23.10;99.90
21950;DHT22;11139;51.284;7.226;2023-08-20T11:57:02;23.10;99.90
21950;DHT22;11139;51.284;7.226;2023-08-20T11:59:28;23.10;99.90
21950;DHT22;11139;51.284;7.226;2023-08-20T12:01:57;23.10;99.90
21950;DHT22;11139;51.284;7.226;2023-08-20T12:04:27;23.20;99.90
21950;DHT22;11139;51.284;7.226;2023-08-20T12:09:28;23.20;99.90
21950;DHT22;11139;51.284;7.226;2023-08-20T12:11:54;23.20;99.90
21950;DHT22;11139;51.284;7.226;2023-08-20T12:14:23;23.20;99.90
21950;DHT22;11139;51.284;7.226;2023-08-20T12:16:48;23.20;99.90
21950;DHT22;11139;51.284;7.226;2023-08-20T12:19:16;23.30;99.90
21950;DHT22;11139;51.284;7.226;2023-08-20T12:21:42;23.30;99.90
21950;DHT22;11139;51.284;7.226;2023-08-20T12:24:08;23.20;99.90
21950;DHT22;11139;51.284;7.226;2023-08-20T12:26:35;23.20;99.90
21950;DHT22;11139;51.284;7.226;2023-08-20T12:29:00;23.20;99.90
21950;DHT22;11139;51.284;7.226;2023-08-20T12:31:25;23.10;99.90
21950;DHT22;11139;51.284;7.226;2023-08-20T12:33:51;23.20;99.90
21950;DHT22;11139;51.284;7.226;2023-08-20T12:36:16;23.20;99.90
21950;DHT22;11139;51.284;7.226;2023-08-20T12:38:42;23.10;99.90
21950;DHT22;11139;51.284;7.226;2023-08-20T12:41:07;23.20;99.90
21950;DHT22;11139;51.284;7.226;2023-08-20T12:43:33;23.10;99.90
21950;DHT22;11139;51.284;7.226;2023-08-20T12:45:58;23.30;99.90
21950;DHT22;11139;51.284;7.226;2023-08-20T12:48:24;23.60;99.90
21950;DHT22;11139;51.284;7.226;2023-08-20T12:50:49;23.50;99.90
21950;DHT22;11139;51.284;7.226;2023-08-20T12:53:15;23.40;99.90
21950;DHT22;11139;51.284;7.226;2023-08-20T12:55:40;23.30;99.90
21950;DHT22;11139;51.284;7.226;2023-08-20T12:58:06;23.20;99.90
21950;DHT22;11139;51.284;7.226;2023-08-20T13:00:32;23.20;99.90
21950;DHT22;11139;51.284;7.226;2023-08-20T13:02:58;23.20;99.90
21950;DHT22;11139;51.284;7.226;2023-08-20T13:05:24;23.10;99.90
21950;DHT22;11139;51.284;7.226;2023-08-20T13:07:50;23.10;99.90
21950;DHT22;11139;51.284;7.226;2023-08-20T13:10:16;23.10;99.90
21950;DHT22;11139;51.284;7.226;2023-08-20T13:12:41;23.10;99.90
21950;DHT22;11139;51.284;7.226;2023-08-20T13:15:09;23.10;99.90
21950;DHT22;11139;51.284;7.226;2023-08-20T13:17:37;23.10;99.90
21950;DHT22;11139;51.284;7.226;2023-08-20T13:20:03;23.00;99.90
21950;DHT22;11139;51.284;7.226;2023-08-20T13:22:30;23.00;99.90
21950;DHT22;11139;51.284;7.226;2023-08-20T13:24:55;23.00;99.90
21950;DHT22;11139;51.284;7.226;2023-08-20T13:27:21;23.10;99.90
21950;DHT22;11139;51.284;7.226;2023-08-20T13:29:46;23.10;99.90
21950;DHT22;11139;51.284;7.226;2023-08-20T13:32:12;23.10;99.90
21950;DHT22;11139;51.284;7.226;2023-08-20T13:34:37;23.10;99.90
21950;DHT22;11139;51.284;7.226;2023-08-20T13:37:03;23.10;99.90
21950;DHT22;11139;51.284;7.226;2023-08-20T13:39:30;23.10;99.90
21950;DHT22;11139;51.284;7.226;2023-08-20T13:41:56;23.10;99.90
21950;DHT22;11139;51.284;7.226;2023-08-20T13:44:21;23.10;99.90
21950;DHT22;11139;51.284;7.226;2023-08-20T13:46:47;23.40;99.90
21950;DHT22;11139;51.284;7.226;2023-08-20T13:49:12;23.60;99.90
21950;DHT22;11139;51.284;7.226;2023-08-20T13:51:38;23.50;99.90
21950;DHT22;11139;51.284;7.226;2023-08-20T13:54:03;23.40;99.90
21950;DHT22;11139;51.284;7.226;2023-08-20T13:56:29;23.30;99.90
21950;DHT22;11139;51.284;7.226;2023-08-20T13:58:54;23.30;99.90
21950;DHT22;11139;51.284;7.226;2023-08-20T14:01:20;23.30;99.90
21950;DHT22;11139;51.284;7.226;2023-08-20T14:03:45;23.30;99.90
21950;DHT22;11139;51.284;7.226;2023-08-20T14:06:11;23.40;99.90
21950;DHT22;11139;51.284;7.226;2023-08-20T14:08:37;23.40;99.90
21950;DHT22;11139;51.284;7.226;2023-08-20T14:11:02;23.40;99.90
21950;DHT22;11139;51.284;7.226;2023-08-20T14:13:28;23.40;99.90
21950;DHT22;11139;51.284;7.226;2023-08-20T14:15:54;23.40;99.90
21950;DHT22;11139;51.284;7.226;2023-08-20T14:18:19;23.40;99.90
21950;DHT22;11139;51.284;7.226;2023-08-20T14:20:45;23.40;99.90
21950;DHT22;11139;51.284;7.226;2023-08-20T14:23:10;23.40;99.90
21950;DHT22;11139;51.284;7.226;2023-08-20T14:25:36;23.30;99.90
21950;DHT22;11139;51.284;7.226;2023-08-20T14:28:01;23.30;99.90
21950;DHT22;11139;51.284;7.226;2023-08-20T14:30:27;23.40;99.90
21950;DHT22;11139;51.284;7.226;2023-08-20T14:32:52;23.30;99.90
21950;DHT22;11139;51.284;7.226;2023-08-20T14:35:18;23.40;99.90
21950;DHT22;11139;51.284;7.226;2023-08-20T14:37:44;23.40;99.90
21950;DHT22;11139;51.284;7.226;2023-08-20T14:40:10;23.40;99.90
21950;DHT22;11139;51.284;7.226;2023-08-20T14:42:36;23.40;99.90
21950;DHT22;11139;51.284;7.226;2023-08-20T14:45:01;23.40;99.90
21950;DHT22;11139;51.284;7.226;2023-08-20T14:47:29;23.80;99.90
21950;DHT22;11139;51.284;7.226;2023-08-20T14:49:54;23.90;99.90
21950;DHT22;11139;51.284;7.226;2023-08-20T14:52:20;23.70;99.90
21950;DHT22;11139;51.284;7.226;2023-08-20T14:54:45;23.70;99.90
21950;DHT22;11139;51.284;7.226;2023-08-20T14:57:11;23.60;99.90
21950;DHT22;11139;51.284;7.226;2023-08-20T14:59:36;23.60;99.90
21950;DHT22;11139;51.284;7.226;2023-08-20T15:02:02;23.60;99.90
21950;DHT22;11139;51.284;7.226;2023-08-20T15:04:28;23.60;99.90
21950;DHT22;11139;51.284;7.226;2023-08-20T15:06:53;23.60;99.90
21950;DHT22;11139;51.284;7.226;2023-08-20T15:09:18;23.60;99.90
21950;DHT22;11139;51.284;7.226;2023-08-20T15:11:45;23.60;99.90
21950;DHT22;11139;51.284;7.226;2023-08-20T15:14:11;23.60;99.90
21950;DHT22;11139;51.284;7.226;2023-08-20T15:16:36;23.60;99.90
21950;DHT22;11139;51.284;7.226;2023-08-20T15:19:02;23.60;99.90
21950;DHT22;11139;51.284;7.226;2023-08-20T15:21:28;23.60;99.90
21950;DHT22;11139;51.284;7.226;2023-08-20T15:23:53;23.60;99.90
21950;DHT22;11139;51.284;7.226;2023-08-20T15:26:19;23.60;99.90
21950;DHT22;11139;51.284;7.226;2023-08-20T15:28:44;23.60;99.90
21950;DHT22;11139;51.284;7.226;2023-08-20T15:31:10;23.60;99.90
21950;DHT22;11139;51.284;7.226;2023-08-20T15:33:35;23.70;99.90
21950;DHT22;11139;51.284;7.226;2023-08-20T15:36:01;23.70;99.90